Terminal Aerodrome Forecast
Issued by NWS Sterling, VA

Current Version | Previous Version | Graphics & Text | Print | Product List | Glossary On
Versions: 1 2 3 4 5 6 7 8 9 10 11 12 13 14 15 16 17 18 19 20 21 22 23 24
395
FTUS41 KLWX 221700 AAC
TAFMRB
TAF AMD
KMRB 221700Z 2217/2312 22005KT 3SM TSRA BKN030CB
      TEMPO 2217/2218 VRB30G50KT
     FM221800 22005KT P6SM VCTS BKN030CB
     FM230600 26004KT P6SM BKN060
     FM231000 27005KT P6SM BKN070=

USA.gov is the U.S. government's official web portal to all federal, state and local government web resources and services.